sensor_id;sensor_type;location;lat;lon;timestamp;pressure;altitude;pressure_sealevel;temperature;humidity
33454;BME280;39400;49.744;7.012;2023-06-19T00:00:23;95520.25;;;21.60;69.45
33454;BME280;39400;49.744;7.012;2023-06-19T00:02:48;95530.25;;;21.52;70.12
33454;BME280;39400;49.744;7.012;2023-06-19T00:05:13;95527.47;;;21.52;70.41
33454;BME280;39400;49.744;7.012;2023-06-19T00:07:39;95510.72;;;21.43;70.47
33454;BME280;39400;49.744;7.012;2023-06-19T00:10:05;95512.44;;;21.40;69.86
33454;BME280;39400;49.744;7.012;2023-06-19T00:12:31;95518.25;;;21.27;69.96
33454;BME280;39400;49.744;7.012;2023-06-19T00:14:56;95520.13;;;21.30;69.27
33454;BME280;39400;49.744;7.012;2023-06-19T00:17:22;95501.19;;;21.25;69.08
33454;BME280;39400;49.744;7.012;2023-06-19T00:19:47;95514.19;;;21.38;68.52
33454;BME280;39400;49.744;7.012;2023-06-19T00:22:12;95508.75;;;21.01;69.27
33454;BME280;39400;49.744;7.012;2023-06-19T00:24:38;95511.06;;;20.69;70.09
33454;BME280;39400;49.744;7.012;2023-06-19T00:27:03;95502.66;;;20.78;70.51
33454;BME280;39400;49.744;7.012;2023-06-19T00:29:29;95515.25;;;20.74;70.41
33454;BME280;39400;49.744;7.012;2023-06-19T00:31:56;95517.00;;;20.62;71.53
33454;BME280;39400;49.744;7.012;2023-06-19T00:34:21;95521.09;;;20.24;72.89
33454;BME280;39400;49.744;7.012;2023-06-19T00:36:46;95525.44;;;20.34;73.36
33454;BME280;39400;49.744;7.012;2023-06-19T00:39:12;95524.50;;;20.19;74.47
33454;BME280;39400;49.744;7.012;2023-06-19T00:41:39;95527.31;;;19.91;75.71
33454;BME280;39400;49.744;7.012;2023-06-19T00:44:04;95524.22;;;20.17;74.30
33454;BME280;39400;49.744;7.012;2023-06-19T00:46:30;95528.88;;;20.11;75.02
33454;BME280;39400;49.744;7.012;2023-06-19T00:48:57;95538.81;;;19.75;76.39
33454;BME280;39400;49.744;7.012;2023-06-19T00:51:22;95540.31;;;19.58;78.62
33454;BME280;39400;49.744;7.012;2023-06-19T00:53:48;95540.91;;;19.53;80.52
33454;BME280;39400;49.744;7.012;2023-06-19T00:56:13;95545.84;;;19.39;81.75
33454;BME280;39400;49.744;7.012;2023-06-19T00:58:39;95536.88;;;19.44;81.15
33454;BME280;39400;49.744;7.012;2023-06-19T01:01:04;95551.16;;;19.56;82.06
33454;BME280;39400;49.744;7.012;2023-06-19T01:03:29;95542.19;;;19.61;81.57
33454;BME280;39400;49.744;7.012;2023-06-19T01:05:56;95534.59;;;19.70;81.53
33454;BME280;39400;49.744;7.012;2023-06-19T01:08:47;95530.91;;;19.83;80.91
33454;BME280;39400;49.744;7.012;2023-06-19T01:11:18;95532.28;;;19.69;81.02
33454;BME280;39400;49.744;7.012;2023-06-19T01:13:52;95529.13;;;19.48;81.99
33454;BME280;39400;49.744;7.012;2023-06-19T01:16:19;95526.50;;;19.45;82.37
33454;BME280;39400;49.744;7.012;2023-06-19T01:18:45;95539.03;;;19.49;82.11
33454;BME280;39400;49.744;7.012;2023-06-19T01:21:15;95534.41;;;19.56;82.22
33454;BME280;39400;49.744;7.012;2023-06-19T01:23:41;95537.88;;;19.87;80.71
33454;BME280;39400;49.744;7.012;2023-06-19T01:26:10;95534.47;;;19.83;80.77
33454;BME280;39400;49.744;7.012;2023-06-19T01:28:38;95537.25;;;19.92;80.39
33454;BME280;39400;49.744;7.012;2023-06-19T01:31:25;95539.84;;;19.59;82.48
33454;BME280;39400;49.744;7.012;2023-06-19T01:33:53;95539.75;;;19.81;81.79
33454;BME280;39400;49.744;7.012;2023-06-19T01:36:21;95536.63;;;19.70;82.38
33454;BME280;39400;49.744;7.012;2023-06-19T01:38:50;95536.47;;;19.83;81.86
33454;BME280;39400;49.744;7.012;2023-06-19T01:41:17;95528.88;;;19.74;81.67
33454;BME280;39400;49.744;7.012;2023-06-19T01:43:45;95536.31;;;20.23;79.77
33454;BME280;39400;49.744;7.012;2023-06-19T01:46:11;95545.59;;;19.74;80.74
33454;BME280;39400;49.744;7.012;2023-06-19T01:48:38;95547.41;;;19.49;82.56
33454;BME280;39400;49.744;7.012;2023-06-19T01:51:05;95549.34;;;19.71;81.79
33454;BME280;39400;49.744;7.012;2023-06-19T01:53:31;95549.31;;;19.62;82.20
33454;BME280;39400;49.744;7.012;2023-06-19T01:55:57;95543.13;;;19.94;80.96
33454;BME280;39400;49.744;7.012;2023-06-19T01:58:22;95549.03;;;19.69;81.66
33454;BME280;39400;49.744;7.012;2023-06-19T02:00:49;95564.66;;;19.08;84.57
33454;BME280;39400;49.744;7.012;2023-06-19T02:03:15;95563.78;;;19.20;84.93
33454;BME280;39400;49.744;7.012;2023-06-19T02:05:42;95574.94;;;19.20;85.97
33454;BME280;39400;49.744;7.012;2023-06-19T02:08:07;95580.63;;;18.76;89.86
33454;BME280;39400;49.744;7.012;2023-06-19T02:10:35;95578.94;;;18.79;90.72
33454;BME280;39400;49.744;7.012;2023-06-19T02:13:01;95582.31;;;18.51;92.87
33454;BME280;39400;49.744;7.012;2023-06-19T02:15:27;95571.78;;;18.46;94.50
33454;BME280;39400;49.744;7.012;2023-06-19T02:17:55;95583.22;;;18.70;94.58
33454;BME280;39400;49.744;7.012;2023-06-19T02:20:23;95582.03;;;18.59;96.92
33454;BME280;39400;49.744;7.012;2023-06-19T02:22:49;95579.06;;;18.53;98.74
33454;BME280;39400;49.744;7.012;2023-06-19T02:25:15;95582.31;;;18.51;99.90
33454;BME280;39400;49.744;7.012;2023-06-19T02:27:42;95585.19;;;18.17;100.00
33454;BME280;39400;49.744;7.012;2023-06-19T02:30:08;95606.69;;;18.03;100.00
33454;BME280;39400;49.744;7.012;2023-06-19T02:32:33;95597.72;;;17.99;100.00
33454;BME280;39400;49.744;7.012;2023-06-19T02:35:02;95592.75;;;18.16;100.00
33454;BME280;39400;49.744;7.012;2023-06-19T02:37:27;95605.13;;;18.15;100.00
33454;BME280;39400;49.744;7.012;2023-06-19T02:39:52;95609.97;;;18.24;100.00
33454;BME280;39400;49.744;7.012;2023-06-19T02:42:18;95611.75;;;18.18;100.00
33454;BME280;39400;49.744;7.012;2023-06-19T02:44:43;95625.13;;;17.88;100.00
33454;BME280;39400;49.744;7.012;2023-06-19T02:47:09;95629.94;;;18.10;100.00
33454;BME280;39400;49.744;7.012;2023-06-19T02:49:34;95624.00;;;17.98;100.00
33454;BME280;39400;49.744;7.012;2023-06-19T02:52:00;95629.78;;;17.91;100.00
33454;BME280;39400;49.744;7.012;2023-06-19T02:54:25;95623.34;;;17.94;100.00
33454;BME280;39400;49.744;7.012;2023-06-19T02:56:51;95630.16;;;17.80;100.00
33454;BME280;39400;49.744;7.012;2023-06-19T02:59:17;95631.84;;;17.78;100.00
33454;BME280;39400;49.744;7.012;2023-06-19T03:01:42;95638.44;;;17.93;100.00
33454;BME280;39400;49.744;7.012;2023-06-19T03:04:11;95645.50;;;17.85;100.00
33454;BME280;39400;49.744;7.012;2023-06-19T03:06:37;95651.16;;;17.94;100.00
33454;BME280;39400;49.744;7.012;2023-06-19T03:09:02;95639.22;;;17.94;100.00
33454;BME280;39400;49.744;7.012;2023-06-19T03:11:28;95646.72;;;17.84;100.00
33454;BME280;39400;49.744;7.012;2023-06-19T03:13:54;95653.94;;;17.94;100.00
33454;BME280;39400;49.744;7.012;2023-06-19T03:16:20;95653.44;;;18.09;100.00
33454;BME280;39400;49.744;7.012;2023-06-19T03:18:47;95653.59;;;17.92;100.00
33454;BME280;39400;49.744;7.012;2023-06-19T03:21:15;95648.72;;;17.71;100.00
33454;BME280;39400;49.744;7.012;2023-06-19T03:23:43;95658.75;;;17.81;100.00
33454;BME280;39400;49.744;7.012;2023-06-19T03:26:09;95654.94;;;17.62;100.00
33454;BME280;39400;49.744;7.012;2023-06-19T03:28:36;95662.28;;;17.69;100.00
33454;BME280;39400;49.744;7.012;2023-06-19T03:31:03;95650.63;;;17.74;100.00
33454;BME280;39400;49.744;7.012;2023-06-19T03:33:29;95659.41;;;17.85;100.00
33454;BME280;39400;49.744;7.012;2023-06-19T03:35:54;95665.28;;;17.74;100.00
33454;BME280;39400;49.744;7.012;2023-06-19T03:38:33;95668.50;;;17.73;100.00
33454;BME280;39400;49.744;7.012;2023-06-19T03:40:59;95668.28;;;17.80;100.00
33454;BME280;39400;49.744;7.012;2023-06-19T03:43:25;95675.50;;;18.03;100.00
33454;BME280;39400;49.744;7.012;2023-06-19T03:45:50;95673.63;;;17.87;100.00
33454;BME280;39400;49.744;7.012;2023-06-19T03:48:16;95678.28;;;17.90;100.00
33454;BME280;39400;49.744;7.012;2023-06-19T03:50:42;95678.78;;;17.50;100.00
33454;BME280;39400;49.744;7.012;2023-06-19T03:53:07;95674.38;;;18.00;100.00
33454;BME280;39400;49.744;7.012;2023-06-19T03:55:33;95682.72;;;18.00;100.00
33454;BME280;39400;49.744;7.012;2023-06-19T03:57:58;95698.34;;;17.85;100.00
33454;BME280;39400;49.744;7.012;2023-06-19T04:00:24;95694.56;;;17.79;100.00
33454;BME280;39400;49.744;7.012;2023-06-19T04:02:49;95696.00;;;17.71;100.00
33454;BME280;39400;49.744;7.012;2023-06-19T04:05:15;95695.88;;;17.87;100.00
33454;BME280;39400;49.744;7.012;2023-06-19T04:07:40;95697.22;;;17.95;100.00
33454;BME280;39400;49.744;7.012;2023-06-19T04:10:06;95690.09;;;17.94;100.00
33454;BME280;39400;49.744;7.012;2023-06-19T04:12:31;95687.16;;;18.11;100.00
33454;BME280;39400;49.744;7.012;2023-06-19T04:14:57;95690.88;;;17.95;100.00
33454;BME280;39400;49.744;7.012;2023-06-19T04:17:22;95695.22;;;17.83;100.00
33454;BME280;39400;49.744;7.012;2023-06-19T04:19:48;95689.78;;;17.79;100.00
33454;BME280;39400;49.744;7.012;2023-06-19T04:22:13;95691.66;;;17.95;100.00
33454;BME280;39400;49.744;7.012;2023-06-19T04:24:38;95695.22;;;17.83;100.00
33454;BME280;39400;49.744;7.012;2023-06-19T04:27:04;95681.19;;;17.87;100.00
33454;BME280;39400;49.744;7.012;2023-06-19T04:29:29;95688.66;;;17.90;100.00
33454;BME280;39400;49.744;7.012;2023-06-19T04:31:54;95696.22;;;17.89;100.00
33454;BME280;39400;49.744;7.012;2023-06-19T04:34:20;95702.13;;;17.91;100.00
33454;BME280;39400;49.744;7.012;2023-06-19T04:36:45;95696.84;;;18.06;100.00
33454;BME280;39400;49.744;7.012;2023-06-19T04:39:10;95707.91;;;17.84;100.00
33454;BME280;39400;49.744;7.012;2023-06-19T04:41:36;95721.91;;;17.68;100.00
33454;BME280;39400;49.744;7.012;2023-06-19T04:44:01;95710.78;;;17.93;100.00
33454;BME280;39400;49.744;7.012;2023-06-19T04:46:26;95707.56;;;17.95;100.00
33454;BME280;39400;49.744;7.012;2023-06-19T04:48:52;95712.78;;;18.05;100.00
33454;BME280;39400;49.744;7.012;2023-06-19T04:51:17;95706.00;;;17.94;100.00
33454;BME280;39400;49.744;7.012;2023-06-19T04:53:43;95703.78;;;18.01;100.00
33454;BME280;39400;49.744;7.012;2023-06-19T04:56:08;95703.56;;;17.83;100.00
33454;BME280;39400;49.744;7.012;2023-06-19T04:58:33;95706.56;;;18.01;100.00
33454;BME280;39400;49.744;7.012;2023-06-19T05:00:59;95712.78;;;17.93;100.00
33454;BME280;39400;49.744;7.012;2023-06-19T05:03:24;95726.03;;;17.89;100.00
33454;BME280;39400;49.744;7.012;2023-06-19T05:05:50;95725.03;;;17.95;100.00
33454;BME280;39400;49.744;7.012;2023-06-19T05:08:15;95724.25;;;17.95;100.00
33454;BME280;39400;49.744;7.012;2023-06-19T05:10:40;95728.34;;;18.03;100.00
33454;BME280;39400;49.744;7.012;2023-06-19T05:13:06;95735.16;;;18.02;100.00
33454;BME280;39400;49.744;7.012;2023-06-19T05:15:31;95741.06;;;17.91;100.00
33454;BME280;39400;49.744;7.012;2023-06-19T05:17:56;95733.66;;;18.10;100.00
33454;BME280;39400;49.744;7.012;2023-06-19T05:20:22;95732.78;;;18.00;100.00
33454;BME280;39400;49.744;7.012;2023-06-19T05:22:47;95724.13;;;17.73;100.00
33454;BME280;39400;49.744;7.012;2023-06-19T05:25:13;95713.66;;;18.02;100.00
33454;BME280;39400;49.744;7.012;2023-06-19T05:27:38;95725.38;;;18.32;100.00
33454;BME280;39400;49.744;7.012;2023-06-19T05:30:05;95724.97;;;18.21;100.00
33454;BME280;39400;49.744;7.012;2023-06-19T05:32:30;95717.69;;;18.01;100.00
33454;BME280;39400;49.744;7.012;2023-06-19T05:34:56;95722.78;;;18.03;100.00
33454;BME280;39400;49.744;7.012;2023-06-19T05:37:21;95726.34;;;17.91;100.00
33454;BME280;39400;49.744;7.012;2023-06-19T05:39:46;95718.75;;;18.17;100.00
33454;BME280;39400;49.744;7.012;2023-06-19T05:42:11;95722.84;;;18.25;100.00
33454;BME280;39400;49.744;7.012;2023-06-19T05:44:37;95714.97;;;18.11;100.00
33454;BME280;39400;49.744;7.012;2023-06-19T05:47:03;95727.22;;;18.13;100.00
33454;BME280;39400;49.744;7.012;2023-06-19T05:49:28;95729.25;;;18.35;100.00
33454;BME280;39400;49.744;7.012;2023-06-19T05:51:53;95712.16;;;18.23;100.00
33454;BME280;39400;49.744;7.012;2023-06-19T05:54:19;95728.50;;;18.34;100.00
33454;BME280;39400;49.744;7.012;2023-06-19T05:56:44;95729.38;;;18.31;100.00
33454;BME280;39400;49.744;7.012;2023-06-19T05:59:09;95736.34;;;18.14;100.00
33454;BME280;39400;49.744;7.012;2023-06-19T06:01:34;95737.97;;;18.24;100.00
33454;BME280;39400;49.744;7.012;2023-06-19T06:04:00;95750.72;;;18.12;100.00
33454;BME280;39400;49.744;7.012;2023-06-19T06:06:25;95743.63;;;17.98;100.00
33454;BME280;39400;49.744;7.012;2023-06-19T06:08:51;95743.03;;;18.03;100.00
33454;BME280;39400;49.744;7.012;2023-06-19T06:11:16;95745.16;;;18.12;100.00
33454;BME280;39400;49.744;7.012;2023-06-19T06:13:42;95756.31;;;18.34;100.00
33454;BME280;39400;49.744;7.012;2023-06-19T06:16:07;95752.41;;;18.44;100.00
33454;BME280;39400;49.744;7.012;2023-06-19T06:18:32;95756.19;;;18.50;100.00
33454;BME280;39400;49.744;7.012;2023-06-19T06:20:58;95763.81;;;18.72;100.00
33454;BME280;39400;49.744;7.012;2023-06-19T06:23:23;95757.09;;;18.82;100.00
33454;BME280;39400;49.744;7.012;2023-06-19T06:25:48;95756.44;;;18.43;100.00
33454;BME280;39400;49.744;7.012;2023-06-19T06:28:13;95754.38;;;18.91;100.00
33454;BME280;39400;49.744;7.012;2023-06-19T06:30:39;95761.50;;;18.92;100.00
33454;BME280;39400;49.744;7.012;2023-06-19T06:33:04;95762.25;;;19.15;100.00
33454;BME280;39400;49.744;7.012;2023-06-19T06:35:30;95762.59;;;19.17;100.00
33454;BME280;39400;49.744;7.012;2023-06-19T06:37:55;95762.19;;;19.59;100.00
33454;BME280;39400;49.744;7.012;2023-06-19T06:40:20;95766.00;;;19.21;100.00
33454;BME280;39400;49.744;7.012;2023-06-19T06:42:46;95778.66;;;19.13;100.00
33454;BME280;39400;49.744;7.012;2023-06-19T06:45:11;95774.41;;;18.64;100.00
33454;BME280;39400;49.744;7.012;2023-06-19T06:47:36;95781.03;;;19.01;100.00
33454;BME280;39400;49.744;7.012;2023-06-19T06:50:02;95762.81;;;18.53;100.00
33454;BME280;39400;49.744;7.012;2023-06-19T06:52:27;95771.31;;;18.84;100.00
33454;BME280;39400;49.744;7.012;2023-06-19T06:54:53;95789.56;;;19.20;100.00
33454;BME280;39400;49.744;7.012;2023-06-19T06:57:18;95776.53;;;19.17;100.00
33454;BME280;39400;49.744;7.012;2023-06-19T06:59:43;95799.97;;;19.51;100.00
33454;BME280;39400;49.744;7.012;2023-06-19T07:02:09;95777.47;;;19.45;100.00
33454;BME280;39400;49.744;7.012;2023-06-19T07:04:34;95799.44;;;19.43;100.00
33454;BME280;39400;49.744;7.012;2023-06-19T07:06:59;95796.13;;;19.35;100.00
33454;BME280;39400;49.744;7.012;2023-06-19T07:09:25;95804.13;;;19.02;100.00
33454;BME280;39400;49.744;7.012;2023-06-19T07:11:50;95803.94;;;18.96;100.00
33454;BME280;39400;49.744;7.012;2023-06-19T07:14:16;95802.72;;;19.19;100.00
33454;BME280;39400;49.744;7.012;2023-06-19T07:16:41;95813.09;;;19.19;100.00
33454;BME280;39400;49.744;7.012;2023-06-19T07:19:06;95831.88;;;19.06;100.00
33454;BME280;39400;49.744;7.012;2023-06-19T07:21:32;95828.13;;;19.43;100.00
33454;BME280;39400;49.744;7.012;2023-06-19T07:23:57;95804.41;;;19.70;100.00
33454;BME280;39400;49.744;7.012;2023-06-19T07:26:24;95808.78;;;20.11;100.00
33454;BME280;39400;49.744;7.012;2023-06-19T07:28:49;95815.22;;;20.30;100.00
33454;BME280;39400;49.744;7.012;2023-06-19T07:31:14;95832.25;;;20.23;100.00
33454;BME280;39400;49.744;7.012;2023-06-19T07:33:39;95832.56;;;19.85;100.00
33454;BME280;39400;49.744;7.012;2023-06-19T07:36:05;95828.94;;;20.06;100.00
33454;BME280;39400;49.744;7.012;2023-06-19T07:38:30;95832.34;;;20.10;100.00
33454;BME280;39400;49.744;7.012;2023-06-19T07:40:55;95839.72;;;20.35;100.00
33454;BME280;39400;49.744;7.012;2023-06-19T07:43:21;95833.97;;;19.89;100.00
33454;BME280;39400;49.744;7.012;2023-06-19T07:45:46;95838.81;;;19.98;100.00
33454;BME280;39400;49.744;7.012;2023-06-19T07:48:11;95843.19;;;20.49;100.00
33454;BME280;39400;49.744;7.012;2023-06-19T07:50:37;95843.25;;;20.76;100.00
33454;BME280;39400;49.744;7.012;2023-06-19T07:53:02;95829.41;;;20.54;100.00
33454;BME280;39400;49.744;7.012;2023-06-19T07:55:28;95842.31;;;20.70;100.00
33454;BME280;39400;49.744;7.012;2023-06-19T07:57:53;95840.91;;;20.65;100.00
33454;BME280;39400;49.744;7.012;2023-06-19T08:00:18;95842.63;;;20.81;100.00
33454;BME280;39400;49.744;7.012;2023-06-19T08:02:44;95839.22;;;20.77;100.00
33454;BME280;39400;49.744;7.012;2023-06-19T08:05:09;95833.94;;;21.16;98.84
33454;BME280;39400;49.744;7.012;2023-06-19T08:07:35;95837.06;;;21.55;97.87
33454;BME280;39400;49.744;7.012;2023-06-19T08:10:01;95837.06;;;21.36;95.85
33454;BME280;39400;49.744;7.012;2023-06-19T08:12:27;95843.13;;;21.26;96.17
33454;BME280;39400;49.744;7.012;2023-06-19T08:14:52;95841.06;;;21.72;95.22
33454;BME280;39400;49.744;7.012;2023-06-19T08:17:18;95846.28;;;21.98;93.77
33454;BME280;39400;49.744;7.012;2023-06-19T08:19:43;95843.53;;;21.79;93.35
33454;BME280;39400;49.744;7.012;2023-06-19T08:22:09;95841.25;;;22.11;92.21
33454;BME280;39400;49.744;7.012;2023-06-19T08:24:36;95832.19;;;21.74;91.57
33454;BME280;39400;49.744;7.012;2023-06-19T08:27:02;95827.25;;;22.11;91.43
33454;BME280;39400;49.744;7.012;2023-06-19T08:29:27;95833.47;;;22.24;90.12
33454;BME280;39400;49.744;7.012;2023-06-19T08:31:53;95828.31;;;21.71;89.53
33454;BME280;39400;49.744;7.012;2023-06-19T08:34:18;95835.16;;;21.61;90.94
33454;BME280;39400;49.744;7.012;2023-06-19T08:36:44;95831.56;;;21.79;88.99
33454;BME280;39400;49.744;7.012;2023-06-19T08:39:09;95834.00;;;21.34;89.86
33454;BME280;39400;49.744;7.012;2023-06-19T08:41:37;95843.56;;;21.70;89.11
33454;BME280;39400;49.744;7.012;2023-06-19T08:44:04;95834.56;;;22.08;88.54
33454;BME280;39400;49.744;7.012;2023-06-19T08:46:29;95833.03;;;22.41;86.78
33454;BME280;39400;49.744;7.012;2023-06-19T08:48:55;95831.91;;;22.14;88.04
33454;BME280;39400;49.744;7.012;2023-06-19T08:51:21;95831.03;;;22.65;87.36
33454;BME280;39400;49.744;7.012;2023-06-19T08:53:48;95825.69;;;22.76;86.17
33454;BME280;39400;49.744;7.012;2023-06-19T08:56:14;95827.75;;;22.43;85.37
33454;BME280;39400;49.744;7.012;2023-06-19T08:58:39;95832.44;;;22.70;83.85
33454;BME280;39400;49.744;7.012;2023-06-19T09:01:04;95838.16;;;22.18;84.91
33454;BME280;39400;49.744;7.012;2023-06-19T09:03:30;95825.09;;;22.06;86.52
33454;BME280;39400;49.744;7.012;2023-06-19T09:06:02;95844.63;;;22.82;84.26
33454;BME280;39400;49.744;7.012;2023-06-19T09:08:28;95828.00;;;22.78;83.54
33454;BME280;39400;49.744;7.012;2023-06-19T09:11:00;95836.47;;;22.45;85.00
33454;BME280;39400;49.744;7.012;2023-06-19T09:13:26;95831.28;;;22.76;83.19
33454;BME280;39400;49.744;7.012;2023-06-19T09:16:04;95837.63;;;22.62;82.07
33454;BME280;39400;49.744;7.012;2023-06-19T09:18:50;95825.97;;;22.54;82.94
33454;BME280;39400;49.744;7.012;2023-06-19T09:21:20;95836.13;;;22.52;83.13
33454;BME280;39400;49.744;7.012;2023-06-19T09:23:46;95834.72;;;23.19;81.81
33454;BME280;39400;49.744;7.012;2023-06-19T09:26:16;95827.00;;;22.66;81.29
33454;BME280;39400;49.744;7.012;2023-06-19T09:28:41;95838.44;;;23.55;79.35
33454;BME280;39400;49.744;7.012;2023-06-19T09:31:07;95844.28;;;23.66;78.83
33454;BME280;39400;49.744;7.012;2023-06-19T09:33:34;95839.28;;;23.70;77.18
33454;BME280;39400;49.744;7.012;2023-06-19T09:36:01;95844.22;;;23.22;78.46
33454;BME280;39400;49.744;7.012;2023-06-19T09:38:29;95847.25;;;22.94;78.47
33454;BME280;39400;49.744;7.012;2023-06-19T09:40:56;95828.97;;;22.99;78.34
33454;BME280;39400;49.744;7.012;2023-06-19T09:46:02;95832.75;;;23.64;76.59
33454;BME280;39400;49.744;7.012;2023-06-19T09:48:30;95843.22;;;23.10;76.23
33454;BME280;39400;49.744;7.012;2023-06-19T09:51:05;95836.09;;;23.24;76.16
33454;BME280;39400;49.744;7.012;2023-06-19T09:53:32;95836.88;;;23.24;75.93
33454;BME280;39400;49.744;7.012;2023-06-19T09:55:57;95833.50;;;22.96;76.48
33454;BME280;39400;49.744;7.012;2023-06-19T09:58:23;95843.31;;;22.92;77.68
33454;BME280;39400;49.744;7.012;2023-06-19T10:00:50;95838.06;;;23.33;77.01
33454;BME280;39400;49.744;7.012;2023-06-19T10:03:17;95839.38;;;23.22;76.34
33454;BME280;39400;49.744;7.012;2023-06-19T10:05:43;95840.78;;;23.42;76.19
33454;BME280;39400;49.744;7.012;2023-06-19T10:08:09;95831.78;;;22.99;76.83
33454;BME280;39400;49.744;7.012;2023-06-19T10:10:35;95835.56;;;23.35;77.60
33454;BME280;39400;49.744;7.012;2023-06-19T10:13:15;95828.22;;;23.52;75.94
33454;BME280;39400;49.744;7.012;2023-06-19T10:15:42;95830.53;;;23.39;76.05
33454;BME280;39400;49.744;7.012;2023-06-19T10:18:16;95813.44;;;23.27;77.10
33454;BME280;39400;49.744;7.012;2023-06-19T10:20:43;95836.19;;;23.68;77.47
33454;BME280;39400;49.744;7.012;2023-06-19T10:23:15;95828.72;;;23.95;74.26
33454;BME280;39400;49.744;7.012;2023-06-19T10:25:41;95839.63;;;24.23;73.18
33454;BME280;39400;49.744;7.012;2023-06-19T10:33:23;95827.22;;;24.29;71.33
33454;BME280;39400;49.744;7.012;2023-06-19T10:35:49;95822.31;;;24.59;69.96
33454;BME280;39400;49.744;7.012;2023-06-19T10:38:18;95827.94;;;24.59;69.09
33454;BME280;39400;49.744;7.012;2023-06-19T10:40:45;95817.72;;;24.27;66.26
33454;BME280;39400;49.744;7.012;2023-06-19T10:43:11;95821.16;;;24.51;66.01
33454;BME280;39400;49.744;7.012;2023-06-19T10:45:37;95824.69;;;24.31;67.88
33454;BME280;39400;49.744;7.012;2023-06-19T10:48:03;95824.63;;;24.26;65.34
33454;BME280;39400;49.744;7.012;2023-06-19T10:50:33;95828.50;;;24.13;65.86
33454;BME280;39400;49.744;7.012;2023-06-19T10:52:59;95807.41;;;24.53;65.70
33454;BME280;39400;49.744;7.012;2023-06-19T10:55:24;95817.69;;;24.56;66.18
33454;BME280;39400;49.744;7.012;2023-06-19T10:57:50;95808.09;;;24.48;66.62
33454;BME280;39400;49.744;7.012;2023-06-19T11:00:32;95808.13;;;24.68;64.07
33454;BME280;39400;49.744;7.012;2023-06-19T11:02:58;95803.16;;;25.45;64.92
33454;BME280;39400;49.744;7.012;2023-06-19T11:05:27;95803.78;;;25.29;61.90
33454;BME280;39400;49.744;7.012;2023-06-19T11:07:54;95802.91;;;25.02;61.31
33454;BME280;39400;49.744;7.012;2023-06-19T11:10:22;95804.31;;;25.33;62.19
33454;BME280;39400;49.744;7.012;2023-06-19T11:12:49;95807.84;;;25.54;62.13
33454;BME280;39400;49.744;7.012;2023-06-19T11:15:15;95815.91;;;25.67;61.48
33454;BME280;39400;49.744;7.012;2023-06-19T11:17:40;95807.44;;;25.67;62.90
33454;BME280;39400;49.744;7.012;2023-06-19T11:20:13;95815.47;;;25.74;63.25
33454;BME280;39400;49.744;7.012;2023-06-19T11:22:40;95805.28;;;26.08;59.17
33454;BME280;39400;49.744;7.012;2023-06-19T11:25:07;95805.41;;;25.93;58.21
33454;BME280;39400;49.744;7.012;2023-06-19T11:27:33;95804.84;;;25.63;57.25
33454;BME280;39400;49.744;7.012;2023-06-19T11:30:00;95788.50;;;25.93;55.89
33454;BME280;39400;49.744;7.012;2023-06-19T11:32:31;95799.97;;;25.84;56.42
33454;BME280;39400;49.744;7.012;2023-06-19T11:34:57;95798.78;;;25.96;58.14
33454;BME280;39400;49.744;7.012;2023-06-19T11:37:29;95801.31;;;25.42;56.25
33454;BME280;39400;49.744;7.012;2023-06-19T11:39:56;95800.88;;;25.49;55.79
33454;BME280;39400;49.744;7.012;2023-06-19T11:42:23;95805.84;;;25.34;56.18
33454;BME280;39400;49.744;7.012;2023-06-19T11:44:55;95806.53;;;26.01;56.14
33454;BME280;39400;49.744;7.012;2023-06-19T11:47:20;95791.94;;;26.03;56.10
33454;BME280;39400;49.744;7.012;2023-06-19T11:49:50;95803.66;;;25.96;55.85
33454;BME280;39400;49.744;7.012;2023-06-19T11:52:16;95797.91;;;25.58;56.24
33454;BME280;39400;49.744;7.012;2023-06-19T11:54:41;95806.47;;;25.44;55.04
33454;BME280;39400;49.744;7.012;2023-06-19T11:57:11;95812.78;;;25.12;57.45
33454;BME280;39400;49.744;7.012;2023-06-19T11:59:39;95806.09;;;25.56;56.41
33454;BME280;39400;49.744;7.012;2023-06-19T12:02:05;95803.53;;;25.58;57.28
33454;BME280;39400;49.744;7.012;2023-06-19T12:04:30;95805.44;;;25.67;56.20
33454;BME280;39400;49.744;7.012;2023-06-19T12:06:55;95800.50;;;26.20;55.94
33454;BME280;39400;49.744;7.012;2023-06-19T12:09:21;95806.47;;;26.65;54.66
33454;BME280;39400;49.744;7.012;2023-06-19T12:11:46;95801.69;;;26.88;55.65
33454;BME280;39400;49.744;7.012;2023-06-19T12:14:11;95791.63;;;27.35;55.48
33454;BME280;39400;49.744;7.012;2023-06-19T12:16:37;95798.03;;;27.30;55.44
33454;BME280;39400;49.744;7.012;2023-06-19T12:19:02;95803.50;;;26.11;57.38
33454;BME280;39400;49.744;7.012;2023-06-19T12:21:27;95787.97;;;27.12;56.24
33454;BME280;39400;49.744;7.012;2023-06-19T12:23:53;95794.47;;;27.46;56.17
33454;BME280;39400;49.744;7.012;2023-06-19T12:26:19;95798.81;;;27.36;55.08
33454;BME280;39400;49.744;7.012;2023-06-19T12:28:44;95790.47;;;27.04;52.81
33454;BME280;39400;49.744;7.012;2023-06-19T12:31:10;95785.44;;;26.66;53.54
33454;BME280;39400;49.744;7.012;2023-06-19T12:33:35;95789.22;;;27.06;53.61
33454;BME280;39400;49.744;7.012;2023-06-19T12:36:00;95789.88;;;27.43;53.55
33454;BME280;39400;49.744;7.012;2023-06-19T12:38:25;95787.91;;;28.06;52.12
33454;BME280;39400;49.744;7.012;2023-06-19T12:40:51;95787.34;;;28.58;50.39
33454;BME280;39400;49.744;7.012;2023-06-19T12:43:16;95779.56;;;28.75;48.86
33454;BME280;39400;49.744;7.012;2023-06-19T12:45:41;95776.13;;;29.05;48.81
33454;BME280;39400;49.744;7.012;2023-06-19T12:48:07;95782.50;;;27.96;48.58
33454;BME280;39400;49.744;7.012;2023-06-19T12:50:32;95776.56;;;27.94;49.10
33454;BME280;39400;49.744;7.012;2023-06-19T12:52:58;95774.22;;;27.70;48.68
33454;BME280;39400;49.744;7.012;2023-06-19T12:55:23;95777.00;;;28.66;49.50
33454;BME280;39400;49.744;7.012;2023-06-19T12:57:48;95767.94;;;28.90;48.99